sensor_id;sensor_type;location;lat;lon;timestamp;P1;durP1;ratioP1;P2;durP2;ratioP2
61741;SDS011;47650;49.848;9.620;2022-12-18T00:01:22;44.97;;;21.80;;
61741;SDS011;47650;49.848;9.620;2022-12-18T00:03:52;41.22;;;22.45;;
61741;SDS011;47650;49.848;9.620;2022-12-18T00:06:20;45.22;;;23.95;;
61741;SDS011;47650;49.848;9.620;2022-12-18T00:08:48;53.08;;;25.95;;
61741;SDS011;47650;49.848;9.620;2022-12-18T00:11:21;48.67;;;24.67;;
61741;SDS011;47650;49.848;9.620;2022-12-18T00:13:59;45.75;;;23.73;;
61741;SDS011;47650;49.848;9.620;2022-12-18T00:16:25;44.00;;;22.73;;
61741;SDS011;47650;49.848;9.620;2022-12-18T00:18:55;42.60;;;22.83;;
61741;SDS011;47650;49.848;9.620;2022-12-18T00:21:24;42.67;;;22.92;;
61741;SDS011;47650;49.848;9.620;2022-12-18T00:23:55;38.90;;;20.53;;
61741;SDS011;47650;49.848;9.620;2022-12-18T00:26:23;41.50;;;21.25;;
61741;SDS011;47650;49.848;9.620;2022-12-18T00:28:53;42.67;;;22.02;;
61741;SDS011;47650;49.848;9.620;2022-12-18T00:31:21;40.25;;;22.88;;
61741;SDS011;47650;49.848;9.620;2022-12-18T00:33:48;41.97;;;23.75;;
61741;SDS011;47650;49.848;9.620;2022-12-18T00:36:17;43.05;;;23.13;;
61741;SDS011;47650;49.848;9.620;2022-12-18T00:38:53;42.13;;;21.98;;
61741;SDS011;47650;49.848;9.620;2022-12-18T00:41:21;42.63;;;23.48;;
61741;SDS011;47650;49.848;9.620;2022-12-18T00:44:05;42.40;;;22.20;;
61741;SDS011;47650;49.848;9.620;2022-12-18T00:46:33;41.40;;;23.52;;
61741;SDS011;47650;49.848;9.620;2022-12-18T00:48:59;44.03;;;21.80;;
61741;SDS011;47650;49.848;9.620;2022-12-18T00:51:26;42.67;;;22.17;;
61741;SDS011;47650;49.848;9.620;2022-12-18T00:53:55;42.47;;;21.50;;
61741;SDS011;47650;49.848;9.620;2022-12-18T00:56:22;38.30;;;21.08;;
61741;SDS011;47650;49.848;9.620;2022-12-18T00:58:49;33.13;;;19.13;;
61741;SDS011;47650;49.848;9.620;2022-12-18T01:01:15;38.75;;;20.05;;
61741;SDS011;47650;49.848;9.620;2022-12-18T01:03:42;36.53;;;20.05;;
61741;SDS011;47650;49.848;9.620;2022-12-18T01:06:08;37.53;;;20.20;;
61741;SDS011;47650;49.848;9.620;2022-12-18T01:08:35;36.15;;;20.40;;
61741;SDS011;47650;49.848;9.620;2022-12-18T01:11:01;38.60;;;19.50;;
61741;SDS011;47650;49.848;9.620;2022-12-18T01:13:32;35.50;;;19.50;;
61741;SDS011;47650;49.848;9.620;2022-12-18T01:16:01;37.22;;;19.52;;
61741;SDS011;47650;49.848;9.620;2022-12-18T01:18:26;36.67;;;21.05;;
61741;SDS011;47650;49.848;9.620;2022-12-18T01:20:51;38.28;;;21.35;;
61741;SDS011;47650;49.848;9.620;2022-12-18T01:23:24;39.90;;;20.95;;
61741;SDS011;47650;49.848;9.620;2022-12-18T01:25:50;29.58;;;16.23;;
61741;SDS011;47650;49.848;9.620;2022-12-18T01:28:17;39.55;;;21.92;;
61741;SDS011;47650;49.848;9.620;2022-12-18T01:30:42;39.40;;;22.02;;
61741;SDS011;47650;49.848;9.620;2022-12-18T01:33:08;39.78;;;22.15;;
61741;SDS011;47650;49.848;9.620;2022-12-18T01:35:39;37.45;;;21.27;;
61741;SDS011;47650;49.848;9.620;2022-12-18T01:38:06;43.50;;;21.58;;
61741;SDS011;47650;49.848;9.620;2022-12-18T01:40:37;44.40;;;22.48;;
61741;SDS011;47650;49.848;9.620;2022-12-18T01:43:04;38.13;;;21.83;;
61741;SDS011;47650;49.848;9.620;2022-12-18T01:45:43;35.75;;;19.98;;
61741;SDS011;47650;49.848;9.620;2022-12-18T01:48:08;40.00;;;20.58;;
61741;SDS011;47650;49.848;9.620;2022-12-18T01:55:43;41.22;;;20.83;;
61741;SDS011;47650;49.848;9.620;2022-12-18T01:58:11;36.72;;;19.88;;
61741;SDS011;47650;49.848;9.620;2022-12-18T02:00:39;41.40;;;20.48;;
61741;SDS011;47650;49.848;9.620;2022-12-18T02:03:04;37.20;;;20.35;;
61741;SDS011;47650;49.848;9.620;2022-12-18T02:08:30;46.28;;;22.80;;
61741;SDS011;47650;49.848;9.620;2022-12-18T02:11:04;37.58;;;19.38;;
61741;SDS011;47650;49.848;9.620;2022-12-18T02:13:40;40.83;;;20.58;;
61741;SDS011;47650;49.848;9.620;2022-12-18T02:19:00;41.08;;;23.05;;
61741;SDS011;47650;49.848;9.620;2022-12-18T02:21:42;42.40;;;21.08;;
61741;SDS011;47650;49.848;9.620;2022-12-18T02:27:03;41.65;;;21.77;;
61741;SDS011;47650;49.848;9.620;2022-12-18T02:29:33;43.00;;;22.88;;
61741;SDS011;47650;49.848;9.620;2022-12-18T02:32:04;42.70;;;21.58;;
61741;SDS011;47650;49.848;9.620;2022-12-18T02:34:36;41.80;;;21.08;;
61741;SDS011;47650;49.848;9.620;2022-12-18T02:37:07;38.67;;;21.52;;
61741;SDS011;47650;49.848;9.620;2022-12-18T02:39:37;40.97;;;22.45;;
61741;SDS011;47650;49.848;9.620;2022-12-18T02:42:06;42.72;;;22.60;;
61741;SDS011;47650;49.848;9.620;2022-12-18T02:44:45;38.97;;;21.55;;
61741;SDS011;47650;49.848;9.620;2022-12-18T02:47:16;36.83;;;20.88;;
61741;SDS011;47650;49.848;9.620;2022-12-18T03:04:34;39.92;;;20.65;;
61741;SDS011;47650;49.848;9.620;2022-12-18T03:07:12;37.10;;;20.15;;
61741;SDS011;47650;49.848;9.620;2022-12-18T03:09:43;45.60;;;21.38;;
61741;SDS011;47650;49.848;9.620;2022-12-18T03:12:15;40.13;;;19.88;;
61741;SDS011;47650;49.848;9.620;2022-12-18T03:17:54;35.35;;;18.90;;
61741;SDS011;47650;49.848;9.620;2022-12-18T03:20:24;33.53;;;19.52;;
61741;SDS011;47650;49.848;9.620;2022-12-18T03:22:53;40.70;;;19.88;;
61741;SDS011;47650;49.848;9.620;2022-12-18T03:25:25;40.10;;;19.30;;
61741;SDS011;47650;49.848;9.620;2022-12-18T03:27:54;35.22;;;18.95;;
61741;SDS011;47650;49.848;9.620;2022-12-18T03:30:22;36.92;;;20.30;;
61741;SDS011;47650;49.848;9.620;2022-12-18T03:32:53;44.47;;;20.77;;
61741;SDS011;47650;49.848;9.620;2022-12-18T03:37:55;37.63;;;20.00;;
61741;SDS011;47650;49.848;9.620;2022-12-18T03:40:21;40.30;;;20.98;;
61741;SDS011;47650;49.848;9.620;2022-12-18T03:43:03;39.92;;;20.13;;
61741;SDS011;47650;49.848;9.620;2022-12-18T03:45:38;37.60;;;19.42;;
61741;SDS011;47650;49.848;9.620;2022-12-18T03:51:02;40.40;;;19.98;;
61741;SDS011;47650;49.848;9.620;2022-12-18T03:56:20;37.33;;;20.25;;
61741;SDS011;47650;49.848;9.620;2022-12-18T03:58:47;40.25;;;21.55;;
61741;SDS011;47650;49.848;9.620;2022-12-18T04:01:23;39.17;;;20.98;;
61741;SDS011;47650;49.848;9.620;2022-12-18T04:03:54;39.55;;;20.23;;
61741;SDS011;47650;49.848;9.620;2022-12-18T04:06:21;41.85;;;21.20;;
61741;SDS011;47650;49.848;9.620;2022-12-18T04:08:47;36.97;;;20.20;;
61741;SDS011;47650;49.848;9.620;2022-12-18T04:11:15;43.08;;;22.25;;
61741;SDS011;47650;49.848;9.620;2022-12-18T04:13:41;36.80;;;20.40;;
61741;SDS011;47650;49.848;9.620;2022-12-18T04:16:09;43.13;;;21.13;;
61741;SDS011;47650;49.848;9.620;2022-12-18T04:18:34;39.22;;;21.55;;
61741;SDS011;47650;49.848;9.620;2022-12-18T04:21:03;41.47;;;20.42;;
61741;SDS011;47650;49.848;9.620;2022-12-18T04:23:30;40.88;;;20.85;;
61741;SDS011;47650;49.848;9.620;2022-12-18T04:26:00;37.78;;;20.13;;
61741;SDS011;47650;49.848;9.620;2022-12-18T04:28:26;39.72;;;20.17;;
61741;SDS011;47650;49.848;9.620;2022-12-18T04:30:52;36.75;;;19.77;;
61741;SDS011;47650;49.848;9.620;2022-12-18T04:33:17;37.20;;;19.55;;
61741;SDS011;47650;49.848;9.620;2022-12-18T04:35:44;38.20;;;20.70;;
61741;SDS011;47650;49.848;9.620;2022-12-18T04:38:13;40.92;;;21.02;;
61741;SDS011;47650;49.848;9.620;2022-12-18T04:40:40;42.17;;;20.85;;
61741;SDS011;47650;49.848;9.620;2022-12-18T04:43:06;37.00;;;20.23;;
61741;SDS011;47650;49.848;9.620;2022-12-18T04:45:32;41.95;;;20.55;;
61741;SDS011;47650;49.848;9.620;2022-12-18T04:47:58;39.97;;;21.17;;
61741;SDS011;47650;49.848;9.620;2022-12-18T04:50:27;40.13;;;20.70;;
61741;SDS011;47650;49.848;9.620;2022-12-18T04:52:54;39.63;;;20.70;;
61741;SDS011;47650;49.848;9.620;2022-12-18T04:55:22;42.97;;;20.98;;
61741;SDS011;47650;49.848;9.620;2022-12-18T04:57:47;38.97;;;20.90;;
61741;SDS011;47650;49.848;9.620;2022-12-18T05:00:12;41.33;;;21.10;;
61741;SDS011;47650;49.848;9.620;2022-12-18T05:02:38;41.53;;;20.33;;
61741;SDS011;47650;49.848;9.620;2022-12-18T05:05:04;39.22;;;21.13;;
61741;SDS011;47650;49.848;9.620;2022-12-18T05:07:30;41.85;;;21.20;;
61741;SDS011;47650;49.848;9.620;2022-12-18T05:09:55;35.42;;;18.50;;
61741;SDS011;47650;49.848;9.620;2022-12-18T05:12:21;32.17;;;18.73;;
61741;SDS011;47650;49.848;9.620;2022-12-18T05:14:48;37.95;;;19.40;;
61741;SDS011;47650;49.848;9.620;2022-12-18T05:17:13;39.63;;;19.30;;
61741;SDS011;47650;49.848;9.620;2022-12-18T05:19:39;40.63;;;19.55;;
61741;SDS011;47650;49.848;9.620;2022-12-18T05:22:06;41.67;;;21.98;;
61741;SDS011;47650;49.848;9.620;2022-12-18T05:24:32;36.65;;;20.15;;
61741;SDS011;47650;49.848;9.620;2022-12-18T05:26:59;37.42;;;19.35;;
61741;SDS011;47650;49.848;9.620;2022-12-18T05:29:25;34.92;;;19.25;;
61741;SDS011;47650;49.848;9.620;2022-12-18T05:31:54;39.28;;;18.92;;
61741;SDS011;47650;49.848;9.620;2022-12-18T05:34:19;38.83;;;19.90;;
61741;SDS011;47650;49.848;9.620;2022-12-18T05:36:48;36.72;;;20.60;;
61741;SDS011;47650;49.848;9.620;2022-12-18T05:39:13;41.45;;;20.23;;
61741;SDS011;47650;49.848;9.620;2022-12-18T05:41:39;40.95;;;19.95;;
61741;SDS011;47650;49.848;9.620;2022-12-18T05:44:05;42.42;;;20.55;;
61741;SDS011;47650;49.848;9.620;2022-12-18T05:46:32;52.22;;;23.75;;
61741;SDS011;47650;49.848;9.620;2022-12-18T05:49:00;39.72;;;20.52;;
61741;SDS011;47650;49.848;9.620;2022-12-18T05:51:36;38.50;;;20.27;;
61741;SDS011;47650;49.848;9.620;2022-12-18T05:54:01;43.85;;;20.15;;
61741;SDS011;47650;49.848;9.620;2022-12-18T05:56:27;42.45;;;21.98;;
61741;SDS011;47650;49.848;9.620;2022-12-18T05:58:53;41.60;;;21.15;;
61741;SDS011;47650;49.848;9.620;2022-12-18T06:01:21;40.88;;;20.73;;
61741;SDS011;47650;49.848;9.620;2022-12-18T06:03:51;45.95;;;20.73;;
61741;SDS011;47650;49.848;9.620;2022-12-18T06:06:21;38.33;;;20.25;;
61741;SDS011;47650;49.848;9.620;2022-12-18T06:08:49;38.65;;;21.02;;
61741;SDS011;47650;49.848;9.620;2022-12-18T06:11:20;43.90;;;25.08;;
61741;SDS011;47650;49.848;9.620;2022-12-18T06:13:50;45.65;;;22.50;;
61741;SDS011;47650;49.848;9.620;2022-12-18T06:16:17;42.22;;;22.10;;
61741;SDS011;47650;49.848;9.620;2022-12-18T06:18:43;39.10;;;20.95;;
61741;SDS011;47650;49.848;9.620;2022-12-18T06:21:10;49.55;;;22.42;;
61741;SDS011;47650;49.848;9.620;2022-12-18T06:23:46;40.28;;;22.40;;
61741;SDS011;47650;49.848;9.620;2022-12-18T06:26:13;45.25;;;24.02;;
61741;SDS011;47650;49.848;9.620;2022-12-18T06:28:39;47.53;;;21.58;;
61741;SDS011;47650;49.848;9.620;2022-12-18T06:31:06;41.70;;;22.73;;
61741;SDS011;47650;49.848;9.620;2022-12-18T06:33:32;45.00;;;20.95;;
61741;SDS011;47650;49.848;9.620;2022-12-18T06:36:15;42.95;;;20.13;;
61741;SDS011;47650;49.848;9.620;2022-12-18T06:41:13;36.35;;;18.85;;
61741;SDS011;47650;49.848;9.620;2022-12-18T06:43:41;39.38;;;20.40;;
61741;SDS011;47650;49.848;9.620;2022-12-18T06:46:07;38.58;;;21.50;;
61741;SDS011;47650;49.848;9.620;2022-12-18T06:48:32;36.58;;;19.80;;
61741;SDS011;47650;49.848;9.620;2022-12-18T06:50:57;44.28;;;22.48;;
61741;SDS011;47650;49.848;9.620;2022-12-18T06:53:25;40.83;;;21.23;;
61741;SDS011;47650;49.848;9.620;2022-12-18T06:55:50;41.60;;;21.55;;
61741;SDS011;47650;49.848;9.620;2022-12-18T06:58:16;41.63;;;20.90;;
61741;SDS011;47650;49.848;9.620;2022-12-18T07:00:42;45.95;;;21.95;;
61741;SDS011;47650;49.848;9.620;2022-12-18T07:03:07;39.95;;;21.00;;
61741;SDS011;47650;49.848;9.620;2022-12-18T07:05:32;49.03;;;22.75;;
61741;SDS011;47650;49.848;9.620;2022-12-18T07:07:58;39.50;;;20.23;;
61741;SDS011;47650;49.848;9.620;2022-12-18T07:10:23;40.63;;;21.17;;
61741;SDS011;47650;49.848;9.620;2022-12-18T07:12:51;48.35;;;24.38;;
61741;SDS011;47650;49.848;9.620;2022-12-18T07:15:16;42.50;;;22.70;;
61741;SDS011;47650;49.848;9.620;2022-12-18T07:17:42;47.22;;;23.25;;
61741;SDS011;47650;49.848;9.620;2022-12-18T07:20:07;44.13;;;22.88;;
61741;SDS011;47650;49.848;9.620;2022-12-18T07:22:33;43.88;;;22.58;;
61741;SDS011;47650;49.848;9.620;2022-12-18T07:24:59;45.28;;;23.48;;
61741;SDS011;47650;49.848;9.620;2022-12-18T07:27:25;39.45;;;21.13;;
61741;SDS011;47650;49.848;9.620;2022-12-18T07:29:52;46.40;;;24.70;;
61741;SDS011;47650;49.848;9.620;2022-12-18T07:32:19;44.78;;;22.17;;
61741;SDS011;47650;49.848;9.620;2022-12-18T07:34:44;45.97;;;23.48;;
61741;SDS011;47650;49.848;9.620;2022-12-18T07:37:09;43.95;;;22.75;;
61741;SDS011;47650;49.848;9.620;2022-12-18T07:39:35;44.33;;;23.38;;
61741;SDS011;47650;49.848;9.620;2022-12-18T07:42:02;49.25;;;24.77;;
61741;SDS011;47650;49.848;9.620;2022-12-18T07:44:46;46.28;;;23.80;;
61741;SDS011;47650;49.848;9.620;2022-12-18T07:47:11;44.55;;;23.13;;
61741;SDS011;47650;49.848;9.620;2022-12-18T07:49:36;46.45;;;24.85;;
61741;SDS011;47650;49.848;9.620;2022-12-18T07:52:01;44.40;;;23.25;;
61741;SDS011;47650;49.848;9.620;2022-12-18T07:54:27;42.88;;;23.02;;
61741;SDS011;47650;49.848;9.620;2022-12-18T07:56:52;44.10;;;23.45;;
61741;SDS011;47650;49.848;9.620;2022-12-18T07:59:19;45.15;;;23.25;;
61741;SDS011;47650;49.848;9.620;2022-12-18T08:01:44;39.72;;;22.25;;
61741;SDS011;47650;49.848;9.620;2022-12-18T08:04:10;41.97;;;22.95;;
61741;SDS011;47650;49.848;9.620;2022-12-18T08:06:35;42.15;;;22.02;;
61741;SDS011;47650;49.848;9.620;2022-12-18T08:09:02;38.25;;;21.80;;
61741;SDS011;47650;49.848;9.620;2022-12-18T08:11:27;41.85;;;23.45;;
61741;SDS011;47650;49.848;9.620;2022-12-18T08:13:54;43.63;;;23.27;;
61741;SDS011;47650;49.848;9.620;2022-12-18T08:18:54;44.30;;;24.15;;
61741;SDS011;47650;49.848;9.620;2022-12-18T08:21:20;44.42;;;24.73;;
61741;SDS011;47650;49.848;9.620;2022-12-18T08:23:49;42.13;;;23.35;;
61741;SDS011;47650;49.848;9.620;2022-12-18T08:26:15;44.67;;;24.67;;
61741;SDS011;47650;49.848;9.620;2022-12-18T08:28:42;53.65;;;26.05;;
61741;SDS011;47650;49.848;9.620;2022-12-18T08:31:13;49.13;;;27.67;;
61741;SDS011;47650;49.848;9.620;2022-12-18T08:33:39;46.75;;;26.50;;
61741;SDS011;47650;49.848;9.620;2022-12-18T08:36:06;50.17;;;27.15;;
61741;SDS011;47650;49.848;9.620;2022-12-18T08:38:34;47.78;;;26.65;;
61741;SDS011;47650;49.848;9.620;2022-12-18T08:41:01;50.67;;;24.17;;
61741;SDS011;47650;49.848;9.620;2022-12-18T08:43:28;54.20;;;27.33;;
61741;SDS011;47650;49.848;9.620;2022-12-18T08:46:12;53.42;;;28.92;;
61741;SDS011;47650;49.848;9.620;2022-12-18T08:48:39;49.35;;;26.58;;
61741;SDS011;47650;49.848;9.620;2022-12-18T08:51:06;49.63;;;25.17;;
61741;SDS011;47650;49.848;9.620;2022-12-18T08:53:36;53.28;;;27.23;;
61741;SDS011;47650;49.848;9.620;2022-12-18T08:56:03;59.42;;;29.25;;
61741;SDS011;47650;49.848;9.620;2022-12-18T08:58:36;53.03;;;27.88;;
61741;SDS011;47650;49.848;9.620;2022-12-18T09:01:06;52.50;;;27.50;;
61741;SDS011;47650;49.848;9.620;2022-12-18T09:03:34;52.78;;;28.73;;
61741;SDS011;47650;49.848;9.620;2022-12-18T09:06:01;55.10;;;28.92;;
61741;SDS011;47650;49.848;9.620;2022-12-18T09:08:27;54.08;;;28.85;;
61741;SDS011;47650;49.848;9.620;2022-12-18T09:10:58;57.08;;;30.40;;
61741;SDS011;47650;49.848;9.620;2022-12-18T09:13:23;57.75;;;31.25;;
61741;SDS011;47650;49.848;9.620;2022-12-18T09:15:53;61.38;;;30.95;;
61741;SDS011;47650;49.848;9.620;2022-12-18T09:18:21;55.25;;;28.52;;
61741;SDS011;47650;49.848;9.620;2022-12-18T09:20:48;57.35;;;31.17;;
61741;SDS011;47650;49.848;9.620;2022-12-18T09:23:15;55.25;;;26.42;;
61741;SDS011;47650;49.848;9.620;2022-12-18T09:25:40;53.80;;;28.60;;
61741;SDS011;47650;49.848;9.620;2022-12-18T09:28:09;62.45;;;30.77;;
61741;SDS011;47650;49.848;9.620;2022-12-18T09:30:40;60.15;;;29.95;;
61741;SDS011;47650;49.848;9.620;2022-12-18T09:33:06;58.65;;;29.80;;
61741;SDS011;47650;49.848;9.620;2022-12-18T09:35:32;59.53;;;32.72;;
61741;SDS011;47650;49.848;9.620;2022-12-18T09:38:00;52.17;;;27.45;;
61741;SDS011;47650;49.848;9.620;2022-12-18T09:40:34;62.25;;;30.13;;
61741;SDS011;47650;49.848;9.620;2022-12-18T09:43:09;60.20;;;29.35;;
61741;SDS011;47650;49.848;9.620;2022-12-18T09:45:42;59.20;;;28.65;;
61741;SDS011;47650;49.848;9.620;2022-12-18T09:48:25;62.72;;;30.38;;
61741;SDS011;47650;49.848;9.620;2022-12-18T09:50:57;61.35;;;31.30;;
61741;SDS011;47650;49.848;9.620;2022-12-18T09:53:28;56.97;;;29.52;;
61741;SDS011;47650;49.848;9.620;2022-12-18T09:55:56;57.67;;;27.02;;
61741;SDS011;47650;49.848;9.620;2022-12-18T10:01:23;60.10;;;30.55;;
61741;SDS011;47650;49.848;9.620;2022-12-18T10:03:49;56.60;;;28.73;;
61741;SDS011;47650;49.848;9.620;2022-12-18T10:18:01;55.72;;;27.20;;
61741;SDS011;47650;49.848;9.620;2022-12-18T10:20:32;50.28;;;26.05;;
61741;SDS011;47650;49.848;9.620;2022-12-18T10:28:22;56.45;;;28.40;;
61741;SDS011;47650;49.848;9.620;2022-12-18T10:30:49;53.45;;;27.45;;
61741;SDS011;47650;49.848;9.620;2022-12-18T10:35:42;48.58;;;26.98;;
61741;SDS011;47650;49.848;9.620;2022-12-18T10:46:04;52.45;;;26.73;;
61741;SDS011;47650;49.848;9.620;2022-12-18T10:48:31;51.88;;;27.60;;
61741;SDS011;47650;49.848;9.620;2022-12-18T10:50:57;49.83;;;27.27;;
61741;SDS011;47650;49.848;9.620;2022-12-18T10:53:27;69.05;;;34.53;;
61741;SDS011;47650;49.848;9.620;2022-12-18T10:55:55;55.97;;;29.38;;
61741;SDS011;47650;49.848;9.620;2022-12-18T10:58:32;53.53;;;27.83;;
61741;SDS011;47650;49.848;9.620;2022-12-18T11:01:06;52.83;;;27.35;;
61741;SDS011;47650;49.848;9.620;2022-12-18T11:06:02;52.67;;;27.73;;
61741;SDS011;47650;49.848;9.620;2022-12-18T11:08:29;50.10;;;26.48;;
61741;SDS011;47650;49.848;9.620;2022-12-18T11:10:54;49.90;;;27.00;;
61741;SDS011;47650;49.848;9.620;2022-12-18T11:13:21;49.95;;;24.58;;
61741;SDS011;47650;49.848;9.620;2022-12-18T11:15:49;50.88;;;28.23;;
61741;SDS011;47650;49.848;9.620;2022-12-18T11:21:06;49.70;;;26.83;;
61741;SDS011;47650;49.848;9.620;2022-12-18T11:24:07;46.28;;;26.40;;
61741;SDS011;47650;49.848;9.620;2022-12-18T11:26:33;50.90;;;26.98;;
61741;SDS011;47650;49.848;9.620;2022-12-18T11:29:08;48.92;;;25.75;;
61741;SDS011;47650;49.848;9.620;2022-12-18T11:31:35;50.85;;;26.25;;
61741;SDS011;47650;49.848;9.620;2022-12-18T11:34:05;49.80;;;26.95;;
61741;SDS011;47650;49.848;9.620;2022-12-18T11:36:44;49.38;;;26.20;;
61741;SDS011;47650;49.848;9.620;2022-12-18T11:39:21;52.00;;;26.15;;
61741;SDS011;47650;49.848;9.620;2022-12-18T11:42:04;46.22;;;27.17;;
61741;SDS011;47650;49.848;9.620;2022-12-18T11:53:15;48.13;;;26.70;;
61741;SDS011;47650;49.848;9.620;2022-12-18T11:58:27;48.53;;;25.67;;
61741;SDS011;47650;49.848;9.620;2022-12-18T12:01:09;47.80;;;26.20;;
61741;SDS011;47650;49.848;9.620;2022-12-18T12:06:21;43.05;;;26.52;;
61741;SDS011;47650;49.848;9.620;2022-12-18T12:21:16;48.75;;;26.20;;
61741;SDS011;47650;49.848;9.620;2022-12-18T12:24:03;45.53;;;25.73;;
61741;SDS011;47650;49.848;9.620;2022-12-18T12:26:33;43.55;;;25.00;;
61741;SDS011;47650;49.848;9.620;2022-12-18T12:34:44;45.45;;;26.60;;
61741;SDS011;47650;49.848;9.620;2022-12-18T12:40:19;44.88;;;25.52;;
61741;SDS011;47650;49.848;9.620;2022-12-18T12:42:51;42.78;;;25.33;;
61741;SDS011;47650;49.848;9.620;2022-12-18T12:48:46;42.60;;;25.25;;
61741;SDS011;47650;49.848;9.620;2022-12-18T12:53:51;45.63;;;25.38;;
61741;SDS011;47650;49.848;9.620;2022-12-18T12:56:18;41.30;;;25.17;;
61741;SDS011;47650;49.848;9.620;2022-12-18T13:04:13;43.03;;;25.00;;
61741;SDS011;47650;49.848;9.620;2022-12-18T13:09:31;43.83;;;25.63;;
61741;SDS011;47650;49.848;9.620;2022-12-18T13:12:09;41.03;;;24.02;;
61741;SDS011;47650;49.848;9.620;2022-12-18T13:14:55;42.90;;;25.02;;
61741;SDS011;47650;49.848;9.620;2022-12-18T13:17:38;41.83;;;25.15;;
61741;SDS011;47650;49.848;9.620;2022-12-18T13:20:10;40.22;;;23.52;;
61741;SDS011;47650;49.848;9.620;2022-12-18T13:22:45;41.95;;;23.90;;
61741;SDS011;47650;49.848;9.620;2022-12-18T13:28:04;42.90;;;25.17;;
61741;SDS011;47650;49.848;9.620;2022-12-18T13:45:45;39.90;;;23.85;;
61741;SDS011;47650;49.848;9.620;2022-12-18T13:48:21;38.97;;;22.25;;
61741;SDS011;47650;49.848;9.620;2022-12-18T13:50:52;41.33;;;23.67;;
61741;SDS011;47650;49.848;9.620;2022-12-18T13:53:29;34.42;;;21.77;;
61741;SDS011;47650;49.848;9.620;2022-12-18T13:55:58;38.00;;;22.33;;
61741;SDS011;47650;49.848;9.620;2022-12-18T13:58:25;37.88;;;21.17;;
61741;SDS011;47650;49.848;9.620;2022-12-18T14:00:50;36.40;;;20.65;;
61741;SDS011;47650;49.848;9.620;2022-12-18T14:03:34;36.90;;;20.38;;
61741;SDS011;47650;49.848;9.620;2022-12-18T14:06:05;31.10;;;19.07;;
61741;SDS011;47650;49.848;9.620;2022-12-18T14:08:35;38.10;;;21.92;;
61741;SDS011;47650;49.848;9.620;2022-12-18T14:11:05;33.75;;;19.70;;
61741;SDS011;47650;49.848;9.620;2022-12-18T14:13:33;35.63;;;20.55;;
61741;SDS011;47650;49.848;9.620;2022-12-18T14:16:05;34.90;;;20.25;;
61741;SDS011;47650;49.848;9.620;2022-12-18T14:18:41;38.08;;;22.65;;
61741;SDS011;47650;49.848;9.620;2022-12-18T14:21:26;34.72;;;20.95;;
61741;SDS011;47650;49.848;9.620;2022-12-18T14:26:34;38.45;;;21.98;;
61741;SDS011;47650;49.848;9.620;2022-12-18T14:29:46;35.83;;;20.48;;
61741;SDS011;47650;49.848;9.620;2022-12-18T14:32:10;34.72;;;20.15;;
61741;SDS011;47650;49.848;9.620;2022-12-18T14:34:39;34.53;;;18.90;;
61741;SDS011;47650;49.848;9.620;2022-12-18T14:37:04;34.45;;;20.33;;
61741;SDS011;47650;49.848;9.620;2022-12-18T14:39:34;35.13;;;21.10;;
61741;SDS011;47650;49.848;9.620;2022-12-18T14:41:59;33.25;;;20.48;;
61741;SDS011;47650;49.848;9.620;2022-12-18T14:44:25;33.10;;;20.55;;
61741;SDS011;47650;49.848;9.620;2022-12-18T14:46:50;34.90;;;19.55;;
61741;SDS011;47650;49.848;9.620;2022-12-18T14:51:55;34.20;;;19.85;;
61741;SDS011;47650;49.848;9.620;2022-12-18T14:54:25;36.85;;;21.17;;
61741;SDS011;47650;49.848;9.620;2022-12-18T14:59:50;37.38;;;20.77;;
61741;SDS011;47650;49.848;9.620;2022-12-18T15:04:59;37.10;;;21.52;;
61741;SDS011;47650;49.848;9.620;2022-12-18T15:07:52;38.15;;;20.75;;
61741;SDS011;47650;49.848;9.620;2022-12-18T15:10:29;37.88;;;21.60;;
61741;SDS011;47650;49.848;9.620;2022-12-18T15:18:03;42.25;;;23.50;;
61741;SDS011;47650;49.848;9.620;2022-12-18T15:20:32;45.35;;;25.75;;
61741;SDS011;47650;49.848;9.620;2022-12-18T15:23:03;42.80;;;24.05;;
61741;SDS011;47650;49.848;9.620;2022-12-18T15:25:32;40.95;;;22.20;;
61741;SDS011;47650;49.848;9.620;2022-12-18T15:28:04;42.47;;;22.80;;
61741;SDS011;47650;49.848;9.620;2022-12-18T15:30:57;40.50;;;21.88;;
61741;SDS011;47650;49.848;9.620;2022-12-18T15:33:37;34.42;;;18.20;;
61741;SDS011;47650;49.848;9.620;2022-12-18T15:36:12;39.20;;;21.33;;
61741;SDS011;47650;49.848;9.620;2022-12-18T15:38:39;42.97;;;23.88;;
61741;SDS011;47650;49.848;9.620;2022-12-18T15:41:05;39.55;;;22.75;;
61741;SDS011;47650;49.848;9.620;2022-12-18T15:43:30;41.58;;;21.98;;
61741;SDS011;47650;49.848;9.620;2022-12-18T15:46:03;40.80;;;23.13;;
61741;SDS011;47650;49.848;9.620;2022-12-18T15:48:30;42.28;;;22.42;;
61741;SDS011;47650;49.848;9.620;2022-12-18T15:51:00;40.88;;;22.55;;
61741;SDS011;47650;49.848;9.620;2022-12-18T15:53:29;40.28;;;22.00;;
61741;SDS011;47650;49.848;9.620;2022-12-18T15:56:07;44.63;;;23.50;;
61741;SDS011;47650;49.848;9.620;2022-12-18T15:58:55;40.05;;;21.85;;
61741;SDS011;47650;49.848;9.620;2022-12-18T16:01:22;45.28;;;20.85;;
61741;SDS011;47650;49.848;9.620;2022-12-18T16:03:51;41.88;;;22.73;;
61741;SDS011;47650;49.848;9.620;2022-12-18T16:06:16;42.63;;;22.45;;
61741;SDS011;47650;49.848;9.620;2022-12-18T16:08:42;43.28;;;21.60;;
61741;SDS011;47650;49.848;9.620;2022-12-18T16:11:11;38.92;;;20.88;;
61741;SDS011;47650;49.848;9.620;2022-12-18T16:13:47;47.80;;;24.35;;
61741;SDS011;47650;49.848;9.620;2022-12-18T16:16:14;45.28;;;24.95;;
61741;SDS011;47650;49.848;9.620;2022-12-18T16:18:39;45.35;;;24.55;;
61741;SDS011;47650;49.848;9.620;2022-12-18T16:21:05;43.92;;;21.52;;
61741;SDS011;47650;49.848;9.620;2022-12-18T16:23:30;43.75;;;25.17;;
61741;SDS011;47650;49.848;9.620;2022-12-18T16:25:56;43.97;;;23.73;;
61741;SDS011;47650;49.848;9.620;2022-12-18T16:28:29;46.72;;;23.40;;
61741;SDS011;47650;49.848;9.620;2022-12-18T16:30:57;44.40;;;25.60;;
61741;SDS011;47650;49.848;9.620;2022-12-18T16:33:22;49.78;;;24.98;;
61741;SDS011;47650;49.848;9.620;2022-12-18T16:35:51;48.20;;;24.52;;
61741;SDS011;47650;49.848;9.620;2022-12-18T16:38:17;64.97;;;32.88;;
61741;SDS011;47650;49.848;9.620;2022-12-18T16:40:43;49.83;;;26.75;;
61741;SDS011;47650;49.848;9.620;2022-12-18T16:43:28;43.35;;;24.08;;
61741;SDS011;47650;49.848;9.620;2022-12-18T16:45:53;44.53;;;26.25;;
61741;SDS011;47650;49.848;9.620;2022-12-18T16:48:22;49.20;;;25.75;;
61741;SDS011;47650;49.848;9.620;2022-12-18T16:50:47;114.47;;;51.80;;
61741;SDS011;47650;49.848;9.620;2022-12-18T16:53:13;105.72;;;48.38;;
61741;SDS011;47650;49.848;9.620;2022-12-18T16:55:40;48.17;;;27.25;;
61741;SDS011;47650;49.848;9.620;2022-12-18T16:58:05;48.92;;;26.13;;
61741;SDS011;47650;49.848;9.620;2022-12-18T17:00:38;49.05;;;26.67;;
61741;SDS011;47650;49.848;9.620;2022-12-18T17:03:04;43.05;;;25.00;;
61741;SDS011;47650;49.848;9.620;2022-12-18T17:05:29;47.03;;;26.08;;
61741;SDS011;47650;49.848;9.620;2022-12-18T17:08:01;46.28;;;25.92;;
61741;SDS011;47650;49.848;9.620;2022-12-18T17:10:27;47.05;;;26.45;;
61741;SDS011;47650;49.848;9.620;2022-12-18T17:12:53;44.95;;;25.40;;
61741;SDS011;47650;49.848;9.620;2022-12-18T17:15:24;40.05;;;23.20;;
61741;SDS011;47650;49.848;9.620;2022-12-18T17:17:49;43.40;;;23.60;;